sensor_id;sensor_type;location;lat;lon;timestamp;P1;durP1;ratioP1;P2;durP2;ratioP2
26325;SDS011;14032;52.510;7.342;2023-05-07T00:02:15;25.17;;;18.48;;
26325;SDS011;14032;52.510;7.342;2023-05-07T00:04:41;26.48;;;18.45;;
26325;SDS011;14032;52.510;7.342;2023-05-07T00:07:06;24.30;;;19.85;;
26325;SDS011;14032;52.510;7.342;2023-05-07T00:09:32;28.45;;;17.58;;
26325;SDS011;14032;52.510;7.342;2023-05-07T00:11:57;25.50;;;18.88;;
26325;SDS011;14032;52.510;7.342;2023-05-07T00:14:23;24.80;;;19.83;;
26325;SDS011;14032;52.510;7.342;2023-05-07T00:16:48;25.67;;;19.15;;
26325;SDS011;14032;52.510;7.342;2023-05-07T00:19:14;25.23;;;19.05;;
26325;SDS011;14032;52.510;7.342;2023-05-07T00:21:41;28.08;;;19.85;;
26325;SDS011;14032;52.510;7.342;2023-05-07T00:24:06;25.73;;;19.70;;
26325;SDS011;14032;52.510;7.342;2023-05-07T00:26:33;25.50;;;19.08;;
26325;SDS011;14032;52.510;7.342;2023-05-07T00:28:58;25.70;;;19.92;;
26325;SDS011;14032;52.510;7.342;2023-05-07T00:31:24;24.13;;;19.23;;
26325;SDS011;14032;52.510;7.342;2023-05-07T00:33:49;25.90;;;19.40;;
26325;SDS011;14032;52.510;7.342;2023-05-07T00:36:15;25.40;;;20.35;;
26325;SDS011;14032;52.510;7.342;2023-05-07T00:38:40;30.35;;;20.75;;
26325;SDS011;14032;52.510;7.342;2023-05-07T00:41:06;28.92;;;21.17;;
26325;SDS011;14032;52.510;7.342;2023-05-07T00:43:32;28.85;;;21.38;;
26325;SDS011;14032;52.510;7.342;2023-05-07T00:45:58;27.40;;;19.75;;
26325;SDS011;14032;52.510;7.342;2023-05-07T00:48:26;27.63;;;21.05;;
26325;SDS011;14032;52.510;7.342;2023-05-07T00:50:51;31.40;;;21.65;;
26325;SDS011;14032;52.510;7.342;2023-05-07T00:58:28;27.52;;;22.23;;
26325;SDS011;14032;52.510;7.342;2023-05-07T01:00:54;28.13;;;21.73;;
26325;SDS011;14032;52.510;7.342;2023-05-07T01:03:20;28.95;;;22.25;;
26325;SDS011;14032;52.510;7.342;2023-05-07T01:11:03;32.80;;;24.17;;
26325;SDS011;14032;52.510;7.342;2023-05-07T01:13:29;31.00;;;22.90;;
26325;SDS011;14032;52.510;7.342;2023-05-07T01:15:55;34.88;;;22.63;;
26325;SDS011;14032;52.510;7.342;2023-05-07T01:18:20;32.50;;;24.40;;
26325;SDS011;14032;52.510;7.342;2023-05-07T01:20:48;31.30;;;23.65;;
26325;SDS011;14032;52.510;7.342;2023-05-07T01:23:13;30.75;;;23.48;;
26325;SDS011;14032;52.510;7.342;2023-05-07T01:25:40;33.80;;;24.58;;
26325;SDS011;14032;52.510;7.342;2023-05-07T01:28:06;29.98;;;23.50;;
26325;SDS011;14032;52.510;7.342;2023-05-07T01:30:31;33.33;;;23.75;;
26325;SDS011;14032;52.510;7.342;2023-05-07T01:33:09;34.45;;;23.67;;
26325;SDS011;14032;52.510;7.342;2023-05-07T01:35:39;33.45;;;25.23;;
26325;SDS011;14032;52.510;7.342;2023-05-07T01:38:08;37.63;;;24.27;;
26325;SDS011;14032;52.510;7.342;2023-05-07T01:40:34;33.67;;;24.90;;
26325;SDS011;14032;52.510;7.342;2023-05-07T01:43:01;35.83;;;23.95;;
26325;SDS011;14032;52.510;7.342;2023-05-07T01:45:27;37.90;;;26.55;;
26325;SDS011;14032;52.510;7.342;2023-05-07T01:47:56;34.67;;;26.55;;
26325;SDS011;14032;52.510;7.342;2023-05-07T01:53:01;37.50;;;25.08;;
26325;SDS011;14032;52.510;7.342;2023-05-07T01:55:27;36.05;;;24.85;;
26325;SDS011;14032;52.510;7.342;2023-05-07T01:57:52;33.05;;;24.63;;
26325;SDS011;14032;52.510;7.342;2023-05-07T02:00:18;38.58;;;25.92;;
26325;SDS011;14032;52.510;7.342;2023-05-07T02:07:53;33.92;;;25.13;;
26325;SDS011;14032;52.510;7.342;2023-05-07T02:10:19;34.90;;;25.33;;
26325;SDS011;14032;52.510;7.342;2023-05-07T02:12:46;39.78;;;26.55;;
26325;SDS011;14032;52.510;7.342;2023-05-07T02:15:11;36.97;;;26.67;;
26325;SDS011;14032;52.510;7.342;2023-05-07T02:17:39;38.30;;;27.40;;
26325;SDS011;14032;52.510;7.342;2023-05-07T02:20:24;37.25;;;26.67;;
26325;SDS011;14032;52.510;7.342;2023-05-07T02:22:49;41.97;;;27.42;;
26325;SDS011;14032;52.510;7.342;2023-05-07T02:25:15;40.22;;;28.13;;
26325;SDS011;14032;52.510;7.342;2023-05-07T02:27:40;38.13;;;26.73;;
26325;SDS011;14032;52.510;7.342;2023-05-07T02:30:06;38.10;;;27.35;;
26325;SDS011;14032;52.510;7.342;2023-05-07T02:32:32;42.17;;;28.98;;
26325;SDS011;14032;52.510;7.342;2023-05-07T02:34:58;40.00;;;28.92;;
26325;SDS011;14032;52.510;7.342;2023-05-07T02:37:23;37.30;;;28.35;;
26325;SDS011;14032;52.510;7.342;2023-05-07T02:39:49;42.60;;;28.77;;
26325;SDS011;14032;52.510;7.342;2023-05-07T02:42:14;42.78;;;29.95;;
26325;SDS011;14032;52.510;7.342;2023-05-07T02:44:40;40.33;;;30.13;;
26325;SDS011;14032;52.510;7.342;2023-05-07T02:47:05;44.08;;;30.30;;
26325;SDS011;14032;52.510;7.342;2023-05-07T02:49:33;39.13;;;29.35;;
26325;SDS011;14032;52.510;7.342;2023-05-07T02:51:59;41.83;;;29.95;;
26325;SDS011;14032;52.510;7.342;2023-05-07T02:54:24;51.15;;;30.35;;
26325;SDS011;14032;52.510;7.342;2023-05-07T02:56:50;40.22;;;30.15;;
26325;SDS011;14032;52.510;7.342;2023-05-07T02:59:16;47.22;;;32.65;;
26325;SDS011;14032;52.510;7.342;2023-05-07T03:01:41;43.33;;;32.13;;
26325;SDS011;14032;52.510;7.342;2023-05-07T03:04:09;47.90;;;32.95;;
26325;SDS011;14032;52.510;7.342;2023-05-07T03:09:09;48.05;;;32.85;;
26325;SDS011;14032;52.510;7.342;2023-05-07T03:11:36;47.25;;;32.40;;
26325;SDS011;14032;52.510;7.342;2023-05-07T03:14:01;47.75;;;33.30;;
26325;SDS011;14032;52.510;7.342;2023-05-07T03:16:27;47.63;;;34.42;;
26325;SDS011;14032;52.510;7.342;2023-05-07T03:18:53;46.47;;;33.03;;
26325;SDS011;14032;52.510;7.342;2023-05-07T03:23:54;52.22;;;35.08;;
26325;SDS011;14032;52.510;7.342;2023-05-07T03:26:19;50.95;;;34.28;;
26325;SDS011;14032;52.510;7.342;2023-05-07T03:28:46;46.55;;;33.90;;
26325;SDS011;14032;52.510;7.342;2023-05-07T03:31:11;50.42;;;34.60;;
26325;SDS011;14032;52.510;7.342;2023-05-07T03:33:39;51.33;;;33.88;;
26325;SDS011;14032;52.510;7.342;2023-05-07T03:36:22;49.70;;;34.33;;
26325;SDS011;14032;52.510;7.342;2023-05-07T03:38:48;52.65;;;34.80;;
26325;SDS011;14032;52.510;7.342;2023-05-07T03:41:14;50.08;;;34.47;;
26325;SDS011;14032;52.510;7.342;2023-05-07T03:43:40;47.67;;;33.33;;
26325;SDS011;14032;52.510;7.342;2023-05-07T03:48:39;47.30;;;33.22;;
26325;SDS011;14032;52.510;7.342;2023-05-07T03:51:05;49.17;;;34.50;;
26325;SDS011;14032;52.510;7.342;2023-05-07T03:53:30;47.55;;;33.83;;
26325;SDS011;14032;52.510;7.342;2023-05-07T03:55:56;46.03;;;34.28;;
26325;SDS011;14032;52.510;7.342;2023-05-07T04:03:30;53.33;;;34.60;;
26325;SDS011;14032;52.510;7.342;2023-05-07T04:05:55;49.10;;;33.13;;
26325;SDS011;14032;52.510;7.342;2023-05-07T04:08:22;47.08;;;33.92;;
26325;SDS011;14032;52.510;7.342;2023-05-07T04:10:47;47.05;;;32.92;;
26325;SDS011;14032;52.510;7.342;2023-05-07T04:13:13;45.95;;;33.83;;
26325;SDS011;14032;52.510;7.342;2023-05-07T04:31:10;52.00;;;34.47;;
26325;SDS011;14032;52.510;7.342;2023-05-07T04:46:23;49.42;;;35.03;;
26325;SDS011;14032;52.510;7.342;2023-05-07T04:48:52;53.22;;;35.47;;
26325;SDS011;14032;52.510;7.342;2023-05-07T04:51:18;53.38;;;36.58;;
26325;SDS011;14032;52.510;7.342;2023-05-07T04:56:17;49.30;;;35.42;;
26325;SDS011;14032;52.510;7.342;2023-05-07T04:58:42;50.33;;;35.22;;
26325;SDS011;14032;52.510;7.342;2023-05-07T05:01:08;49.03;;;35.30;;
26325;SDS011;14032;52.510;7.342;2023-05-07T05:03:34;54.58;;;36.53;;
26325;SDS011;14032;52.510;7.342;2023-05-07T05:05:59;50.85;;;36.25;;
26325;SDS011;14032;52.510;7.342;2023-05-07T05:08:25;54.22;;;37.33;;
26325;SDS011;14032;52.510;7.342;2023-05-07T05:10:50;53.70;;;36.13;;
26325;SDS011;14032;52.510;7.342;2023-05-07T05:13:16;52.47;;;37.17;;
26325;SDS011;14032;52.510;7.342;2023-05-07T05:15:41;52.78;;;38.00;;
26325;SDS011;14032;52.510;7.342;2023-05-07T05:18:07;55.10;;;35.67;;
26325;SDS011;14032;52.510;7.342;2023-05-07T05:20:33;53.65;;;36.60;;
26325;SDS011;14032;52.510;7.342;2023-05-07T05:22:58;58.03;;;37.58;;
26325;SDS011;14032;52.510;7.342;2023-05-07T05:25:25;58.33;;;37.20;;
26325;SDS011;14032;52.510;7.342;2023-05-07T05:27:51;56.80;;;38.72;;
26325;SDS011;14032;52.510;7.342;2023-05-07T05:30:17;54.70;;;35.42;;
26325;SDS011;14032;52.510;7.342;2023-05-07T05:32:42;56.33;;;38.05;;
26325;SDS011;14032;52.510;7.342;2023-05-07T05:35:08;54.22;;;37.95;;
26325;SDS011;14032;52.510;7.342;2023-05-07T05:37:33;61.90;;;38.75;;
26325;SDS011;14032;52.510;7.342;2023-05-07T05:39:59;61.95;;;39.15;;
26325;SDS011;14032;52.510;7.342;2023-05-07T05:42:24;53.63;;;36.63;;
26325;SDS011;14032;52.510;7.342;2023-05-07T05:44:51;53.38;;;37.25;;
26325;SDS011;14032;52.510;7.342;2023-05-07T05:47:17;53.40;;;37.53;;
26325;SDS011;14032;52.510;7.342;2023-05-07T05:49:43;52.65;;;36.60;;
26325;SDS011;14032;52.510;7.342;2023-05-07T05:57:17;57.47;;;37.00;;
26325;SDS011;14032;52.510;7.342;2023-05-07T05:59:43;52.33;;;35.80;;
26325;SDS011;14032;52.510;7.342;2023-05-07T06:02:12;52.17;;;36.97;;
26325;SDS011;14032;52.510;7.342;2023-05-07T06:04:41;58.88;;;37.70;;
26325;SDS011;14032;52.510;7.342;2023-05-07T06:07:07;53.35;;;35.90;;
26325;SDS011;14032;52.510;7.342;2023-05-07T06:09:33;53.72;;;36.70;;
26325;SDS011;14032;52.510;7.342;2023-05-07T06:11:59;53.28;;;36.47;;
26325;SDS011;14032;52.510;7.342;2023-05-07T06:14:30;59.05;;;37.83;;
26325;SDS011;14032;52.510;7.342;2023-05-07T06:19:31;53.50;;;36.08;;
26325;SDS011;14032;52.510;7.342;2023-05-07T06:21:57;56.33;;;36.97;;
26325;SDS011;14032;52.510;7.342;2023-05-07T06:24:22;56.80;;;37.22;;
26325;SDS011;14032;52.510;7.342;2023-05-07T06:26:49;56.55;;;37.08;;
26325;SDS011;14032;52.510;7.342;2023-05-07T06:29:15;53.38;;;37.60;;
26325;SDS011;14032;52.510;7.342;2023-05-07T06:31:42;59.10;;;37.42;;
26325;SDS011;14032;52.510;7.342;2023-05-07T06:36:42;57.75;;;37.92;;
26325;SDS011;14032;52.510;7.342;2023-05-07T06:39:09;51.92;;;36.30;;
26325;SDS011;14032;52.510;7.342;2023-05-07T06:41:34;54.08;;;37.97;;
26325;SDS011;14032;52.510;7.342;2023-05-07T06:44:01;58.92;;;37.10;;
26325;SDS011;14032;52.510;7.342;2023-05-07T06:46:27;57.17;;;37.42;;
26325;SDS011;14032;52.510;7.342;2023-05-07T07:04:11;52.33;;;36.10;;
26325;SDS011;14032;52.510;7.342;2023-05-07T07:06:37;50.78;;;34.35;;
26325;SDS011;14032;52.510;7.342;2023-05-07T07:09:08;55.97;;;37.60;;
26325;SDS011;14032;52.510;7.342;2023-05-07T07:11:34;51.65;;;34.03;;
26325;SDS011;14032;52.510;7.342;2023-05-07T07:13:59;57.13;;;36.20;;
26325;SDS011;14032;52.510;7.342;2023-05-07T07:16:25;51.53;;;35.08;;
26325;SDS011;14032;52.510;7.342;2023-05-07T07:18:52;56.70;;;36.28;;
26325;SDS011;14032;52.510;7.342;2023-05-07T07:21:19;57.72;;;36.88;;
26325;SDS011;14032;52.510;7.342;2023-05-07T07:23:45;52.40;;;34.85;;
26325;SDS011;14032;52.510;7.342;2023-05-07T07:26:10;54.92;;;34.65;;
26325;SDS011;14032;52.510;7.342;2023-05-07T07:28:41;52.80;;;34.53;;
26325;SDS011;14032;52.510;7.342;2023-05-07T07:31:08;50.58;;;33.75;;
26325;SDS011;14032;52.510;7.342;2023-05-07T07:33:33;54.67;;;35.17;;
26325;SDS011;14032;52.510;7.342;2023-05-07T07:35:59;49.90;;;33.95;;
26325;SDS011;14032;52.510;7.342;2023-05-07T07:38:24;47.72;;;33.22;;
26325;SDS011;14032;52.510;7.342;2023-05-07T07:40:50;48.55;;;32.97;;
26325;SDS011;14032;52.510;7.342;2023-05-07T07:43:16;50.65;;;33.50;;
26325;SDS011;14032;52.510;7.342;2023-05-07T07:48:17;45.92;;;31.48;;
26325;SDS011;14032;52.510;7.342;2023-05-07T07:50:42;44.05;;;31.70;;
26325;SDS011;14032;52.510;7.342;2023-05-07T08:11:15;39.95;;;28.65;;
26325;SDS011;14032;52.510;7.342;2023-05-07T08:57:43;35.10;;;25.67;;
26325;SDS011;14032;52.510;7.342;2023-05-07T09:00:09;34.42;;;25.38;;
26325;SDS011;14032;52.510;7.342;2023-05-07T09:02:35;33.45;;;25.27;;
26325;SDS011;14032;52.510;7.342;2023-05-07T09:15:23;33.22;;;25.52;;
26325;SDS011;14032;52.510;7.342;2023-05-07T09:33:19;29.25;;;23.50;;
26325;SDS011;14032;52.510;7.342;2023-05-07T09:35:44;32.47;;;23.45;;
26325;SDS011;14032;52.510;7.342;2023-05-07T09:38:11;29.08;;;22.88;;
26325;SDS011;14032;52.510;7.342;2023-05-07T09:43:18;33.22;;;24.77;;
26325;SDS011;14032;52.510;7.342;2023-05-07T09:45:47;28.25;;;22.65;;
26325;SDS011;14032;52.510;7.342;2023-05-07T09:48:16;30.77;;;23.38;;
26325;SDS011;14032;52.510;7.342;2023-05-07T09:50:47;31.45;;;23.88;;
26325;SDS011;14032;52.510;7.342;2023-05-07T09:53:14;28.38;;;21.23;;
26325;SDS011;14032;52.510;7.342;2023-05-07T09:55:41;30.35;;;22.85;;
26325;SDS011;14032;52.510;7.342;2023-05-07T09:58:08;29.55;;;22.08;;
26325;SDS011;14032;52.510;7.342;2023-05-07T10:00:36;27.05;;;21.42;;
26325;SDS011;14032;52.510;7.342;2023-05-07T10:03:05;28.80;;;22.15;;
26325;SDS011;14032;52.510;7.342;2023-05-07T10:05:32;27.13;;;21.67;;
26325;SDS011;14032;52.510;7.342;2023-05-07T10:07:58;30.77;;;22.38;;
26325;SDS011;14032;52.510;7.342;2023-05-07T10:10:25;31.35;;;22.42;;
26325;SDS011;14032;52.510;7.342;2023-05-07T10:12:52;27.65;;;21.00;;
26325;SDS011;14032;52.510;7.342;2023-05-07T10:15:19;25.98;;;20.98;;
26325;SDS011;14032;52.510;7.342;2023-05-07T10:17:45;27.42;;;21.17;;
26325;SDS011;14032;52.510;7.342;2023-05-07T10:20:11;26.65;;;20.08;;
26325;SDS011;14032;52.510;7.342;2023-05-07T10:22:47;29.42;;;21.70;;
26325;SDS011;14032;52.510;7.342;2023-05-07T10:25:32;26.08;;;21.67;;
26325;SDS011;14032;52.510;7.342;2023-05-07T10:27:59;28.45;;;22.13;;
26325;SDS011;14032;52.510;7.342;2023-05-07T10:33:10;28.95;;;22.38;;
26325;SDS011;14032;52.510;7.342;2023-05-07T10:35:39;29.23;;;22.35;;
26325;SDS011;14032;52.510;7.342;2023-05-07T10:38:08;29.48;;;22.98;;
26325;SDS011;14032;52.510;7.342;2023-05-07T10:40:34;30.95;;;22.63;;
26325;SDS011;14032;52.510;7.342;2023-05-07T10:43:02;28.95;;;23.23;;
26325;SDS011;14032;52.510;7.342;2023-05-07T10:45:31;30.77;;;22.17;;
26325;SDS011;14032;52.510;7.342;2023-05-07T10:48:13;29.02;;;22.85;;
26325;SDS011;14032;52.510;7.342;2023-05-07T10:50:40;30.35;;;23.00;;
26325;SDS011;14032;52.510;7.342;2023-05-07T10:55:41;28.17;;;22.05;;
26325;SDS011;14032;52.510;7.342;2023-05-07T11:00:41;26.88;;;20.80;;
26325;SDS011;14032;52.510;7.342;2023-05-07T11:03:07;25.55;;;20.45;;
26325;SDS011;14032;52.510;7.342;2023-05-07T11:05:33;22.90;;;19.60;;
26325;SDS011;14032;52.510;7.342;2023-05-07T11:08:03;28.67;;;19.98;;
26325;SDS011;14032;52.510;7.342;2023-05-07T11:13:16;26.17;;;21.05;;
26325;SDS011;14032;52.510;7.342;2023-05-07T11:15:46;26.92;;;20.95;;
26325;SDS011;14032;52.510;7.342;2023-05-07T11:18:13;25.88;;;20.65;;
26325;SDS011;14032;52.510;7.342;2023-05-07T11:25:59;25.88;;;19.80;;
26325;SDS011;14032;52.510;7.342;2023-05-07T11:28:29;22.63;;;19.77;;
26325;SDS011;14032;52.510;7.342;2023-05-07T11:36:05;23.60;;;18.77;;
26325;SDS011;14032;52.510;7.342;2023-05-07T11:38:37;20.90;;;17.35;;
26325;SDS011;14032;52.510;7.342;2023-05-07T11:41:03;21.35;;;18.17;;
26325;SDS011;14032;52.510;7.342;2023-05-07T11:43:30;22.70;;;17.85;;
26325;SDS011;14032;52.510;7.342;2023-05-07T11:46:04;21.35;;;17.58;;
26325;SDS011;14032;52.510;7.342;2023-05-07T11:48:32;20.48;;;17.20;;
26325;SDS011;14032;52.510;7.342;2023-05-07T11:51:04;21.30;;;16.80;;
26325;SDS011;14032;52.510;7.342;2023-05-07T11:53:38;21.17;;;16.02;;
26325;SDS011;14032;52.510;7.342;2023-05-07T11:56:05;20.70;;;16.58;;
26325;SDS011;14032;52.510;7.342;2023-05-07T12:01:09;20.27;;;16.65;;
26325;SDS011;14032;52.510;7.342;2023-05-07T12:03:37;20.33;;;16.52;;
26325;SDS011;14032;52.510;7.342;2023-05-07T12:06:07;20.92;;;15.50;;
26325;SDS011;14032;52.510;7.342;2023-05-07T12:08:33;19.95;;;15.32;;
26325;SDS011;14032;52.510;7.342;2023-05-07T12:11:02;18.60;;;16.00;;
26325;SDS011;14032;52.510;7.342;2023-05-07T12:13:28;19.50;;;15.52;;
26325;SDS011;14032;52.510;7.342;2023-05-07T12:15:54;17.58;;;14.70;;
26325;SDS011;14032;52.510;7.342;2023-05-07T12:18:21;18.48;;;14.32;;
26325;SDS011;14032;52.510;7.342;2023-05-07T12:20:48;19.80;;;14.35;;
26325;SDS011;14032;52.510;7.342;2023-05-07T12:23:14;20.15;;;14.63;;
26325;SDS011;14032;52.510;7.342;2023-05-07T12:25:40;19.27;;;15.05;;
26325;SDS011;14032;52.510;7.342;2023-05-07T12:28:16;17.80;;;14.77;;
26325;SDS011;14032;52.510;7.342;2023-05-07T12:30:43;17.55;;;13.88;;
26325;SDS011;14032;52.510;7.342;2023-05-07T12:33:10;17.80;;;13.63;;
26325;SDS011;14032;52.510;7.342;2023-05-07T12:35:40;16.17;;;13.32;;
26325;SDS011;14032;52.510;7.342;2023-05-07T12:38:11;17.77;;;14.00;;
26325;SDS011;14032;52.510;7.342;2023-05-07T12:40:39;15.02;;;12.25;;
26325;SDS011;14032;52.510;7.342;2023-05-07T12:43:05;15.27;;;13.40;;
26325;SDS011;14032;52.510;7.342;2023-05-07T12:45:31;15.52;;;12.60;;
26325;SDS011;14032;52.510;7.342;2023-05-07T12:48:01;15.57;;;11.93;;
26325;SDS011;14032;52.510;7.342;2023-05-07T12:50:30;15.75;;;13.02;;
26325;SDS011;14032;52.510;7.342;2023-05-07T12:52:58;17.92;;;12.98;;
26325;SDS011;14032;52.510;7.342;2023-05-07T12:55:25;15.70;;;12.35;;
26325;SDS011;14032;52.510;7.342;2023-05-07T12:57:51;18.08;;;13.48;;
26325;SDS011;14032;52.510;7.342;2023-05-07T13:00:31;16.00;;;13.10;;
26325;SDS011;14032;52.510;7.342;2023-05-07T13:05:33;17.05;;;13.32;;
26325;SDS011;14032;52.510;7.342;2023-05-07T13:07:58;17.50;;;12.73;;
26325;SDS011;14032;52.510;7.342;2023-05-07T13:10:24;15.80;;;12.32;;
26325;SDS011;14032;52.510;7.342;2023-05-07T13:12:50;16.27;;;11.85;;
26325;SDS011;14032;52.510;7.342;2023-05-07T13:15:17;18.67;;;11.30;;
26325;SDS011;14032;52.510;7.342;2023-05-07T13:17:43;16.50;;;12.50;;
26325;SDS011;14032;52.510;7.342;2023-05-07T13:20:09;18.92;;;12.98;;
26325;SDS011;14032;52.510;7.342;2023-05-07T13:22:35;17.90;;;11.93;;
26325;SDS011;14032;52.510;7.342;2023-05-07T13:25:01;15.38;;;12.23;;
26325;SDS011;14032;52.510;7.342;2023-05-07T13:27:26;14.77;;;11.27;;
26325;SDS011;14032;52.510;7.342;2023-05-07T13:29:52;14.65;;;11.73;;
26325;SDS011;14032;52.510;7.342;2023-05-07T13:32:17;16.08;;;12.90;;
26325;SDS011;14032;52.510;7.342;2023-05-07T13:34:43;18.52;;;12.30;;
26325;SDS011;14032;52.510;7.342;2023-05-07T13:37:08;15.43;;;11.85;;
26325;SDS011;14032;52.510;7.342;2023-05-07T13:39:34;14.27;;;11.38;;
26325;SDS011;14032;52.510;7.342;2023-05-07T13:42:00;14.75;;;11.50;;
26325;SDS011;14032;52.510;7.342;2023-05-07T13:44:26;13.32;;;11.75;;
26325;SDS011;14032;52.510;7.342;2023-05-07T13:46:51;17.83;;;11.93;;
26325;SDS011;14032;52.510;7.342;2023-05-07T13:49:17;13.18;;;9.93;;
26325;SDS011;14032;52.510;7.342;2023-05-07T13:51:42;13.50;;;12.07;;
26325;SDS011;14032;52.510;7.342;2023-05-07T13:54:08;12.48;;;10.60;;
26325;SDS011;14032;52.510;7.342;2023-05-07T13:56:33;12.85;;;11.00;;
26325;SDS011;14032;52.510;7.342;2023-05-07T13:59:00;15.52;;;11.23;;
26325;SDS011;14032;52.510;7.342;2023-05-07T14:01:25;12.75;;;9.50;;
26325;SDS011;14032;52.510;7.342;2023-05-07T14:03:51;14.05;;;10.85;;
26325;SDS011;14032;52.510;7.342;2023-05-07T14:06:17;12.27;;;9.77;;
26325;SDS011;14032;52.510;7.342;2023-05-07T14:08:42;12.00;;;9.88;;
26325;SDS011;14032;52.510;7.342;2023-05-07T14:11:08;13.15;;;10.30;;
26325;SDS011;14032;52.510;7.342;2023-05-07T14:13:33;11.80;;;9.43;;
26325;SDS011;14032;52.510;7.342;2023-05-07T14:15:59;11.25;;;9.35;;
26325;SDS011;14032;52.510;7.342;2023-05-07T14:18:25;12.35;;;10.48;;
26325;SDS011;14032;52.510;7.342;2023-05-07T14:20:51;11.80;;;10.18;;
26325;SDS011;14032;52.510;7.342;2023-05-07T14:23:17;11.43;;;9.25;;
26325;SDS011;14032;52.510;7.342;2023-05-07T14:25:44;13.55;;;10.80;;
26325;SDS011;14032;52.510;7.342;2023-05-07T14:28:12;11.57;;;9.20;;
26325;SDS011;14032;52.510;7.342;2023-05-07T14:30:38;12.60;;;9.48;;
26325;SDS011;14032;52.510;7.342;2023-05-07T14:33:04;12.30;;;9.82;;
26325;SDS011;14032;52.510;7.342;2023-05-07T14:35:29;12.35;;;9.40;;
26325;SDS011;14032;52.510;7.342;2023-05-07T14:37:55;11.73;;;9.07;;
26325;SDS011;14032;52.510;7.342;2023-05-07T14:40:21;12.43;;;10.85;;
26325;SDS011;14032;52.510;7.342;2023-05-07T14:42:46;13.18;;;10.38;;
26325;SDS011;14032;52.510;7.342;2023-05-07T14:45:12;11.68;;;9.38;;
26325;SDS011;14032;52.510;7.342;2023-05-07T14:47:37;10.07;;;9.02;;
26325;SDS011;14032;52.510;7.342;2023-05-07T14:50:03;13.88;;;10.80;;
26325;SDS011;14032;52.510;7.342;2023-05-07T14:52:29;13.35;;;9.88;;
26325;SDS011;14032;52.510;7.342;2023-05-07T14:54:55;11.13;;;9.85;;
26325;SDS011;14032;52.510;7.342;2023-05-07T14:57:20;10.48;;;9.38;;
26325;SDS011;14032;52.510;7.342;2023-05-07T14:59:46;11.80;;;9.60;;
26325;SDS011;14032;52.510;7.342;2023-05-07T15:02:12;13.48;;;10.15;;
26325;SDS011;14032;52.510;7.342;2023-05-07T15:04:38;13.65;;;10.30;;
26325;SDS011;14032;52.510;7.342;2023-05-07T15:07:10;14.13;;;10.15;;
26325;SDS011;14032;52.510;7.342;2023-05-07T15:09:40;14.95;;;10.52;;
26325;SDS011;14032;52.510;7.342;2023-05-07T15:12:06;13.07;;;9.68;;
26325;SDS011;14032;52.510;7.342;2023-05-07T15:14:32;15.13;;;10.25;;
26325;SDS011;14032;52.510;7.342;2023-05-07T15:16:59;14.38;;;10.40;;
26325;SDS011;14032;52.510;7.342;2023-05-07T15:19:25;12.82;;;9.90;;
26325;SDS011;14032;52.510;7.342;2023-05-07T15:21:56;12.55;;;9.65;;
26325;SDS011;14032;52.510;7.342;2023-05-07T15:24:23;11.38;;;9.30;;
26325;SDS011;14032;52.510;7.342;2023-05-07T15:26:49;11.52;;;10.30;;
26325;SDS011;14032;52.510;7.342;2023-05-07T15:29:16;13.18;;;10.55;;
26325;SDS011;14032;52.510;7.342;2023-05-07T15:31:42;10.88;;;8.93;;
26325;SDS011;14032;52.510;7.342;2023-05-07T15:34:08;13.80;;;11.05;;
26325;SDS011;14032;52.510;7.342;2023-05-07T15:36:33;11.75;;;9.45;;
26325;SDS011;14032;52.510;7.342;2023-05-07T15:41:33;11.52;;;9.57;;
26325;SDS011;14032;52.510;7.342;2023-05-07T15:43:58;12.23;;;9.23;;
26325;SDS011;14032;52.510;7.342;2023-05-07T15:51:34;12.77;;;8.45;;
26325;SDS011;14032;52.510;7.342;2023-05-07T15:54:01;13.18;;;9.05;;
26325;SDS011;14032;52.510;7.342;2023-05-07T15:56:27;10.30;;;7.95;;
26325;SDS011;14032;52.510;7.342;2023-05-07T15:58:52;12.57;;;8.93;;
26325;SDS011;14032;52.510;7.342;2023-05-07T16:01:18;13.38;;;10.35;;
26325;SDS011;14032;52.510;7.342;2023-05-07T16:03:44;11.88;;;8.75;;
26325;SDS011;14032;52.510;7.342;2023-05-07T16:06:10;13.93;;;10.30;;
26325;SDS011;14032;52.510;7.342;2023-05-07T16:08:36;11.40;;;9.85;;
26325;SDS011;14032;52.510;7.342;2023-05-07T16:11:04;12.23;;;10.80;;
26325;SDS011;14032;52.510;7.342;2023-05-07T16:13:29;11.95;;;10.55;;
26325;SDS011;14032;52.510;7.342;2023-05-07T16:15:56;13.90;;;11.55;;
26325;SDS011;14032;52.510;7.342;2023-05-07T16:18:23;12.30;;;11.00;;
26325;SDS011;14032;52.510;7.342;2023-05-07T16:20:50;12.98;;;10.77;;
26325;SDS011;14032;52.510;7.342;2023-05-07T16:23:16;13.68;;;11.43;;
26325;SDS011;14032;52.510;7.342;2023-05-07T16:25:42;13.52;;;10.55;;
26325;SDS011;14032;52.510;7.342;2023-05-07T16:28:07;11.68;;;10.48;;
26325;SDS011;14032;52.510;7.342;2023-05-07T16:30:33;12.25;;;10.07;;
26325;SDS011;14032;52.510;7.342;2023-05-07T16:32:58;12.52;;;11.13;;
26325;SDS011;14032;52.510;7.342;2023-05-07T16:35:25;12.63;;;10.13;;
26325;SDS011;14032;52.510;7.342;2023-05-07T16:37:51;13.25;;;11.35;;
26325;SDS011;14032;52.510;7.342;2023-05-07T16:40:17;13.60;;;11.98;;
26325;SDS011;14032;52.510;7.342;2023-05-07T16:42:42;20.60;;;12.55;;
26325;SDS011;14032;52.510;7.342;2023-05-07T16:45:08;17.25;;;12.45;;
26325;SDS011;14032;52.510;7.342;2023-05-07T16:47:34;16.75;;;11.93;;
26325;SDS011;14032;52.510;7.342;2023-05-07T16:50:00;14.48;;;12.98;;
26325;SDS011;14032;52.510;7.342;2023-05-07T16:52:29;14.07;;;12.52;;
26325;SDS011;14032;52.510;7.342;2023-05-07T16:54:55;14.60;;;12.45;;
26325;SDS011;14032;52.510;7.342;2023-05-07T16:57:24;14.25;;;11.75;;
26325;SDS011;14032;52.510;7.342;2023-05-07T16:59:51;14.90;;;12.35;;
26325;SDS011;14032;52.510;7.342;2023-05-07T17:02:17;14.88;;;12.45;;
26325;SDS011;14032;52.510;7.342;2023-05-07T17:04:43;16.85;;;12.95;;
26325;SDS011;14032;52.510;7.342;2023-05-07T17:07:09;14.70;;;12.10;;
26325;SDS011;14032;52.510;7.342;2023-05-07T17:09:34;15.48;;;12.98;;
26325;SDS011;14032;52.510;7.342;2023-05-07T17:12:00;15.10;;;13.32;;
26325;SDS011;14032;52.510;7.342;2023-05-07T17:14:26;14.52;;;13.02;;
26325;SDS011;14032;52.510;7.342;2023-05-07T17:16:52;13.73;;;12.32;;
26325;SDS011;14032;52.510;7.342;2023-05-07T17:19:17;15.45;;;11.63;;
26325;SDS011;14032;52.510;7.342;2023-05-07T17:21:43;14.35;;;12.85;;
26325;SDS011;14032;52.510;7.342;2023-05-07T17:24:08;12.85;;;11.23;;
26325;SDS011;14032;52.510;7.342;2023-05-07T17:26:34;14.68;;;12.88;;
26325;SDS011;14032;52.510;7.342;2023-05-07T17:29:02;15.57;;;12.98;;
26325;SDS011;14032;52.510;7.342;2023-05-07T17:31:27;13.82;;;11.82;;
26325;SDS011;14032;52.510;7.342;2023-05-07T17:33:53;14.23;;;12.65;;
26325;SDS011;14032;52.510;7.342;2023-05-07T17:36:18;13.93;;;12.45;;
26325;SDS011;14032;52.510;7.342;2023-05-07T17:38:44;14.65;;;11.27;;
26325;SDS011;14032;52.510;7.342;2023-05-07T17:41:09;15.30;;;12.05;;
26325;SDS011;14032;52.510;7.342;2023-05-07T17:43:35;14.10;;;12.60;;
26325;SDS011;14032;52.510;7.342;2023-05-07T17:46:00;15.15;;;12.60;;
26325;SDS011;14032;52.510;7.342;2023-05-07T17:48:27;13.70;;;12.27;;
26325;SDS011;14032;52.510;7.342;2023-05-07T17:50:52;13.52;;;12.13;;
26325;SDS011;14032;52.510;7.342;2023-05-07T17:53:24;13.60;;;12.15;;
26325;SDS011;14032;52.510;7.342;2023-05-07T17:55:51;15.90;;;12.15;;